Terminal Aerodrome Forecast
Issued by NWS Cleveland, OH

Home | Current Version | Previous Version | Graphics & Text | Print | Product List | Glossary On
Versions: 1 2 3 4 5 6 7 8 9 10 11 12 13 14 15 16
000
FTUS41 KCLE 210900 AAA
TAFYNG
TAF AMD
KYNG 210900Z 2109/2206 32010KT P6SM BKN015
     FM211100 27010KT P6SM BKN025
     FM211400 28012G20KT P6SM OVC025
     FM212000 28012G22KT P6SM BKN035
     FM220000 33010KT P6SM BKN035=

USA.gov is the U.S. government's official web portal to all federal, state and local government web resources and services.